Barnstable, Massachusetts
Current Conditions -  °F | °C
As of 3:56 AM on Monday 24 Nov 2014 (Local Time) from KHYA Reporting Station
Overcast Overcast  
Wind Chill: 54°   Ceiling: 4900
Heat Index: 54°   Visibility: 10mi
Dew Point: 50°   Wind: 9mph
Humidity: 86%   Direction: 130°SE
Pressure: 30.02"   Gusts: NA
Location:  41.7°N, 70.3°W
Report Text: KHYA 240856Z 13008KT 10SM OVC049 12/10 A3002 RMK AO2 SLP165 T01220100 58028
Loading
Personal Weather Stations






























Interactive Weather Map New forecast layout! Learn more

10-Day Weather Forecast

Advertisements
Track Severe Weather on mobile